sensor_id;sensor_type;location;lat;lon;timestamp;pressure;altitude;pressure_sealevel;temperature;humidity
48517;BME280;34310;51.904;4.256;2023-03-04T00:00:22;102858.72;;;15.21;55.62
48517;BME280;34310;51.904;4.256;2023-03-04T00:02:49;102854.44;;;15.21;55.55
48517;BME280;34310;51.904;4.256;2023-03-04T00:05:16;102857.94;;;15.22;55.64
48517;BME280;34310;51.904;4.256;2023-03-04T00:07:44;102862.13;;;15.19;55.64
48517;BME280;34310;51.904;4.256;2023-03-04T00:10:12;102858.72;;;15.21;55.59
48517;BME280;34310;51.904;4.256;2023-03-04T00:12:39;102857.81;;;15.20;55.77
48517;BME280;34310;51.904;4.256;2023-03-04T00:15:07;102869.28;;;15.22;55.64
48517;BME280;34310;51.904;4.256;2023-03-04T00:17:34;102858.72;;;15.21;55.60
48517;BME280;34310;51.904;4.256;2023-03-04T00:20:01;102861.34;;;15.21;55.58
48517;BME280;34310;51.904;4.256;2023-03-04T00:22:29;102856.13;;;15.21;55.79
48517;BME280;34310;51.904;4.256;2023-03-04T00:24:56;102858.88;;;15.22;55.60
48517;BME280;34310;51.904;4.256;2023-03-04T00:27:23;102859.66;;;15.21;55.77
48517;BME280;34310;51.904;4.256;2023-03-04T00:29:50;102864.06;;;15.22;55.72
48517;BME280;34310;51.904;4.256;2023-03-04T00:32:18;102863.16;;;15.22;55.65
48517;BME280;34310;51.904;4.256;2023-03-04T00:34:45;102857.94;;;15.22;55.74
48517;BME280;34310;51.904;4.256;2023-03-04T00:37:12;102851.97;;;15.23;55.74
48517;BME280;34310;51.904;4.256;2023-03-04T00:39:40;102851.06;;;15.22;55.58
48517;BME280;34310;51.904;4.256;2023-03-04T00:42:07;102856.25;;;15.22;55.68
48517;BME280;34310;51.904;4.256;2023-03-04T00:44:34;102858.09;;;15.23;55.63
48517;BME280;34310;51.904;4.256;2023-03-04T00:47:02;102857.94;;;15.22;55.65
48517;BME280;34310;51.904;4.256;2023-03-04T00:49:29;102846.75;;;15.23;55.69
48517;BME280;34310;51.904;4.256;2023-03-04T00:51:56;102853.66;;;15.22;55.60
48517;BME280;34310;51.904;4.256;2023-03-04T00:54:24;102854.44;;;15.21;55.45
48517;BME280;34310;51.904;4.256;2023-03-04T00:56:51;102856.13;;;15.21;55.66
48517;BME280;34310;51.904;4.256;2023-03-04T00:59:18;102855.34;;;15.22;55.54
48517;BME280;34310;51.904;4.256;2023-03-04T01:01:46;102862.25;;;15.21;55.55
48517;BME280;34310;51.904;4.256;2023-03-04T01:04:13;102859.66;;;15.21;55.60
48517;BME280;34310;51.904;4.256;2023-03-04T01:06:40;102859.66;;;15.21;55.53
48517;BME280;34310;51.904;4.256;2023-03-04T01:09:07;102850.94;;;15.21;55.52
48517;BME280;34310;51.904;4.256;2023-03-04T01:11:35;102856.91;;;15.19;55.50
48517;BME280;34310;51.904;4.256;2023-03-04T01:14:02;102858.59;;;15.19;55.38
48517;BME280;34310;51.904;4.256;2023-03-04T01:16:29;102856.78;;;15.18;55.48
48517;BME280;34310;51.904;4.256;2023-03-04T01:18:57;102856.78;;;15.18;55.56
48517;BME280;34310;51.904;4.256;2023-03-04T01:21:24;102855.88;;;15.17;55.47
48517;BME280;34310;51.904;4.256;2023-03-04T01:23:51;102852.38;;;15.17;55.44
48517;BME280;34310;51.904;4.256;2023-03-04T01:26:19;102839.34;;;15.17;55.45
48517;BME280;34310;51.904;4.256;2023-03-04T01:28:46;102841.84;;;15.15;55.43
48517;BME280;34310;51.904;4.256;2023-03-04T01:31:13;102839.22;;;15.15;55.35
48517;BME280;34310;51.904;4.256;2023-03-04T01:33:41;102836.63;;;15.15;55.34
48517;BME280;34310;51.904;4.256;2023-03-04T01:36:08;102835.72;;;15.15;55.44
48517;BME280;34310;51.904;4.256;2023-03-04T01:38:36;102834.03;;;15.15;55.45
48517;BME280;34310;51.904;4.256;2023-03-04T01:41:04;102827.13;;;15.16;55.39
48517;BME280;34310;51.904;4.256;2023-03-04T01:43:32;102826.34;;;15.17;55.34
48517;BME280;34310;51.904;4.256;2023-03-04T01:46:01;102820.22;;;15.16;55.53
48517;BME280;34310;51.904;4.256;2023-03-04T01:48:38;102821.16;;;15.17;55.49
48517;BME280;34310;51.904;4.256;2023-03-04T01:51:09;102815.16;;;15.18;55.46
48517;BME280;34310;51.904;4.256;2023-03-04T01:53:38;102816.06;;;15.18;55.39
48517;BME280;34310;51.904;4.256;2023-03-04T01:56:21;102815.28;;;15.19;55.53
48517;BME280;34310;51.904;4.256;2023-03-04T02:01:45;102807.59;;;15.21;55.43
48517;BME280;34310;51.904;4.256;2023-03-04T02:04:14;102800.69;;;15.22;55.36
48517;BME280;34310;51.904;4.256;2023-03-04T02:06:43;102804.22;;;15.22;55.46
48517;BME280;34310;51.904;4.256;2023-03-04T02:09:13;102789.38;;;15.21;55.47
48517;BME280;34310;51.904;4.256;2023-03-04T02:11:40;102792.91;;;15.22;55.56
48517;BME280;34310;51.904;4.256;2023-03-04T02:14:09;102797.31;;;15.23;55.45
48517;BME280;34310;51.904;4.256;2023-03-04T02:16:37;102786.00;;;15.22;55.62
48517;BME280;34310;51.904;4.256;2023-03-04T02:19:55;102781.72;;;15.23;55.65
48517;BME280;34310;51.904;4.256;2023-03-04T02:21:54;102780.91;;;15.24;55.47
48517;BME280;34310;51.904;4.256;2023-03-04T02:24:59;102781.84;;;15.24;55.60
48517;BME280;34310;51.904;4.256;2023-03-04T02:27:29;102780.78;;;15.22;55.75
48517;BME280;34310;51.904;4.256;2023-03-04T02:29:57;102771.44;;;15.24;55.67
48517;BME280;34310;51.904;4.256;2023-03-04T02:32:24;102772.22;;;15.23;55.74
48517;BME280;34310;51.904;4.256;2023-03-04T02:34:51;102767.78;;;15.22;55.73
48517;BME280;34310;51.904;4.256;2023-03-04T02:37:19;102770.38;;;15.22;56.00
48517;BME280;34310;51.904;4.256;2023-03-04T02:39:48;102766.09;;;15.23;55.91
48517;BME280;34310;51.904;4.256;2023-03-04T02:42:16;102755.69;;;15.23;55.75
48517;BME280;34310;51.904;4.256;2023-03-04T02:44:45;102765.19;;;15.22;55.86
48517;BME280;34310;51.904;4.256;2023-03-04T02:47:16;102763.50;;;15.23;55.86
48517;BME280;34310;51.904;4.256;2023-03-04T02:49:44;102762.59;;;15.22;55.98
48517;BME280;34310;51.904;4.256;2023-03-04T02:52:19;102759.06;;;15.22;55.93
48517;BME280;34310;51.904;4.256;2023-03-04T02:54:48;102754.78;;;15.22;55.91
48517;BME280;34310;51.904;4.256;2023-03-04T02:57:15;102752.16;;;15.22;55.84
48517;BME280;34310;51.904;4.256;2023-03-04T02:59:43;102753.09;;;15.23;55.86
48517;BME280;34310;51.904;4.256;2023-03-04T03:02:10;102760.88;;;15.23;55.76
48517;BME280;34310;51.904;4.256;2023-03-04T03:04:38;102760.09;;;15.24;55.90
48517;BME280;34310;51.904;4.256;2023-03-04T03:07:07;102758.41;;;15.24;55.68
48517;BME280;34310;51.904;4.256;2023-03-04T03:09:34;102761.78;;;15.23;55.91
48517;BME280;34310;51.904;4.256;2023-03-04T03:12:02;102762.84;;;15.25;55.79
48517;BME280;34310;51.904;4.256;2023-03-04T03:14:29;102759.31;;;15.25;55.88
48517;BME280;34310;51.904;4.256;2023-03-04T03:16:56;102751.50;;;15.25;55.66
48517;BME280;34310;51.904;4.256;2023-03-04T03:19:23;102757.63;;;15.25;55.62
48517;BME280;34310;51.904;4.256;2023-03-04T03:21:51;102756.72;;;15.25;55.80
48517;BME280;34310;51.904;4.256;2023-03-04T03:24:18;102755.03;;;15.25;55.71
48517;BME280;34310;51.904;4.256;2023-03-04T03:26:46;102764.53;;;15.25;55.63
48517;BME280;34310;51.904;4.256;2023-03-04T03:29:13;102756.72;;;15.25;55.63
48517;BME280;34310;51.904;4.256;2023-03-04T03:31:40;102752.28;;;15.24;55.66
48517;BME280;34310;51.904;4.256;2023-03-04T03:34:08;102759.19;;;15.23;55.65
48517;BME280;34310;51.904;4.256;2023-03-04T03:36:35;102756.59;;;15.23;55.51
48517;BME280;34310;51.904;4.256;2023-03-04T03:39:03;102755.69;;;15.23;55.58
48517;BME280;34310;51.904;4.256;2023-03-04T03:41:30;102764.41;;;15.23;55.50
48517;BME280;34310;51.904;4.256;2023-03-04T03:43:57;102759.06;;;15.22;55.43
48517;BME280;34310;51.904;4.256;2023-03-04T03:46:25;102757.38;;;15.22;55.58
48517;BME280;34310;51.904;4.256;2023-03-04T03:48:53;102758.16;;;15.21;55.36
48517;BME280;34310;51.904;4.256;2023-03-04T03:51:20;102758.94;;;15.20;55.36
48517;BME280;34310;51.904;4.256;2023-03-04T03:53:48;102756.34;;;15.20;55.46
48517;BME280;34310;51.904;4.256;2023-03-04T03:56:15;102749.31;;;15.19;55.36
48517;BME280;34310;51.904;4.256;2023-03-04T03:58:42;102758.03;;;15.19;55.41
48517;BME280;34310;51.904;4.256;2023-03-04T04:01:09;102757.13;;;15.19;55.36
48517;BME280;34310;51.904;4.256;2023-03-04T04:03:37;102760.50;;;15.18;55.47
48517;BME280;34310;51.904;4.256;2023-03-04T04:06:04;102754.41;;;15.17;55.31
48517;BME280;34310;51.904;4.256;2023-03-04T04:08:32;102760.50;;;15.18;55.28
48517;BME280;34310;51.904;4.256;2023-03-04T04:10:59;102755.06;;;15.15;55.65
48517;BME280;34310;51.904;4.256;2023-03-04T04:13:26;102756.09;;;15.17;55.39
48517;BME280;34310;51.904;4.256;2023-03-04T04:15:54;102757.00;;;15.17;55.40
48517;BME280;34310;51.904;4.256;2023-03-04T04:18:21;102758.81;;;15.18;55.53
48517;BME280;34310;51.904;4.256;2023-03-04T04:20:51;102752.72;;;15.18;55.31
48517;BME280;34310;51.904;4.256;2023-03-04T04:23:19;102759.72;;;15.19;55.43
48517;BME280;34310;51.904;4.256;2023-03-04T04:25:46;102756.22;;;15.18;55.65
48517;BME280;34310;51.904;4.256;2023-03-04T04:28:14;102749.31;;;15.19;55.61
48517;BME280;34310;51.904;4.256;2023-03-04T04:30:41;102755.56;;;15.21;55.50
48517;BME280;34310;51.904;4.256;2023-03-04T04:33:09;102752.97;;;15.21;55.70
48517;BME280;34310;51.904;4.256;2023-03-04T04:35:36;102754.66;;;15.21;55.47
48517;BME280;34310;51.904;4.256;2023-03-04T04:38:07;102752.16;;;15.22;55.43
48517;BME280;34310;51.904;4.256;2023-03-04T04:40:35;102753.88;;;15.22;55.56
48517;BME280;34310;51.904;4.256;2023-03-04T04:43:03;102753.09;;;15.23;55.59
48517;BME280;34310;51.904;4.256;2023-03-04T04:45:30;102756.59;;;15.23;55.49
48517;BME280;34310;51.904;4.256;2023-03-04T04:47:58;102758.41;;;15.24;55.57
48517;BME280;34310;51.904;4.256;2023-03-04T04:50:26;102754.13;;;15.25;55.45
48517;BME280;34310;51.904;4.256;2023-03-04T04:52:53;102757.63;;;15.25;55.57
48517;BME280;34310;51.904;4.256;2023-03-04T04:55:20;102760.22;;;15.25;55.50
48517;BME280;34310;51.904;4.256;2023-03-04T04:57:48;102754.13;;;15.25;55.50
48517;BME280;34310;51.904;4.256;2023-03-04T05:00:16;102762.03;;;15.26;55.60
48517;BME280;34310;51.904;4.256;2023-03-04T05:02:45;102759.44;;;15.26;55.61
48517;BME280;34310;51.904;4.256;2023-03-04T05:05:12;102758.66;;;15.27;55.61
48517;BME280;34310;51.904;4.256;2023-03-04T05:07:39;102766.47;;;15.27;55.52
48517;BME280;34310;51.904;4.256;2023-03-04T05:10:07;102768.41;;;15.30;55.67
48517;BME280;34310;51.904;4.256;2023-03-04T05:12:34;102760.47;;;15.28;55.62
48517;BME280;34310;51.904;4.256;2023-03-04T05:15:02;102753.47;;;15.27;55.70
48517;BME280;34310;51.904;4.256;2023-03-04T05:17:29;102759.56;;;15.28;55.79
48517;BME280;34310;51.904;4.256;2023-03-04T05:19:56;102762.03;;;15.26;55.73
48517;BME280;34310;51.904;4.256;2023-03-04T05:22:24;102767.25;;;15.26;55.97
48517;BME280;34310;51.904;4.256;2023-03-04T05:24:51;102764.66;;;15.26;56.00
48517;BME280;34310;51.904;4.256;2023-03-04T05:27:18;102759.31;;;15.25;55.84
48517;BME280;34310;51.904;4.256;2023-03-04T05:29:45;102764.66;;;15.26;55.95
48517;BME280;34310;51.904;4.256;2023-03-04T05:32:13;102765.44;;;15.25;55.94
48517;BME280;34310;51.904;4.256;2023-03-04T05:34:40;102755.03;;;15.25;55.98
48517;BME280;34310;51.904;4.256;2023-03-04T05:37:07;102760.22;;;15.25;55.88
48517;BME280;34310;51.904;4.256;2023-03-04T05:39:35;102759.31;;;15.25;55.86
48517;BME280;34310;51.904;4.256;2023-03-04T05:42:02;102754.25;;;15.26;55.86
48517;BME280;34310;51.904;4.256;2023-03-04T05:44:29;102758.66;;;15.27;55.95
48517;BME280;34310;51.904;4.256;2023-03-04T05:46:56;102760.34;;;15.27;55.81
48517;BME280;34310;51.904;4.256;2023-03-04T05:49:24;102759.44;;;15.26;55.79
48517;BME280;34310;51.904;4.256;2023-03-04T05:51:51;102757.75;;;15.27;55.80
48517;BME280;34310;51.904;4.256;2023-03-04T05:54:18;102757.75;;;15.27;55.85
48517;BME280;34310;51.904;4.256;2023-03-04T05:56:46;102757.75;;;15.27;55.79
48517;BME280;34310;51.904;4.256;2023-03-04T05:59:13;102756.84;;;15.26;55.68
48517;BME280;34310;51.904;4.256;2023-03-04T06:01:46;102754.38;;;15.28;55.77
48517;BME280;34310;51.904;4.256;2023-03-04T06:04:14;102756.06;;;15.27;55.67
48517;BME280;34310;51.904;4.256;2023-03-04T06:06:41;102756.06;;;15.27;55.57
48517;BME280;34310;51.904;4.256;2023-03-04T06:09:08;102761.25;;;15.27;55.67
48517;BME280;34310;51.904;4.256;2023-03-04T06:11:36;102751.63;;;15.26;55.56
48517;BME280;34310;51.904;4.256;2023-03-04T06:14:03;102749.81;;;15.25;55.58
48517;BME280;34310;51.904;4.256;2023-03-04T06:16:31;102755.03;;;15.25;55.56
48517;BME280;34310;51.904;4.256;2023-03-04T06:18:58;102755.03;;;15.25;55.50
48517;BME280;34310;51.904;4.256;2023-03-04T06:21:26;102755.03;;;15.25;55.52
48517;BME280;34310;51.904;4.256;2023-03-04T06:23:53;102756.72;;;15.25;55.41
48517;BME280;34310;51.904;4.256;2023-03-04T06:26:20;102760.22;;;15.25;55.50
48517;BME280;34310;51.904;4.256;2023-03-04T06:28:48;102764.53;;;15.25;55.38
48517;BME280;34310;51.904;4.256;2023-03-04T06:31:15;102761.00;;;15.24;55.46
48517;BME280;34310;51.904;4.256;2023-03-04T06:33:42;102755.69;;;15.23;55.45
48517;BME280;34310;51.904;4.256;2023-03-04T06:36:10;102767.78;;;15.22;55.43
48517;BME280;34310;51.904;4.256;2023-03-04T06:38:37;102765.97;;;15.21;55.55
48517;BME280;34310;51.904;4.256;2023-03-04T06:41:08;102768.56;;;15.21;55.37
48517;BME280;34310;51.904;4.256;2023-03-04T06:43:36;102765.06;;;15.21;55.45
48517;BME280;34310;51.904;4.256;2023-03-04T06:46:05;102768.44;;;15.19;55.47
48517;BME280;34310;51.904;4.256;2023-03-04T06:48:33;102770.13;;;15.19;55.32
48517;BME280;34310;51.904;4.256;2023-03-04T06:51:11;102771.72;;;15.17;55.54
48517;BME280;34310;51.904;4.256;2023-03-04T06:53:39;102771.84;;;15.18;55.67
48517;BME280;34310;51.904;4.256;2023-03-04T06:56:08;102776.25;;;15.19;55.58
48517;BME280;34310;51.904;4.256;2023-03-04T06:58:36;102773.66;;;15.19;55.60
48517;BME280;34310;51.904;4.256;2023-03-04T07:01:29;102777.16;;;15.20;55.45
48517;BME280;34310;51.904;4.256;2023-03-04T07:03:57;102777.16;;;15.20;55.41
48517;BME280;34310;51.904;4.256;2023-03-04T07:06:27;102783.28;;;15.21;55.70
48517;BME280;34310;51.904;4.256;2023-03-04T07:08:55;102792.25;;;15.24;55.98
48517;BME280;34310;51.904;4.256;2023-03-04T07:11:23;102788.59;;;15.22;55.59
48517;BME280;34310;51.904;4.256;2023-03-04T07:13:50;102783.53;;;15.24;55.75
48517;BME280;34310;51.904;4.256;2023-03-04T07:16:21;102790.69;;;15.26;55.63
48517;BME280;34310;51.904;4.256;2023-03-04T07:18:49;102789.75;;;15.26;55.53
48517;BME280;34310;51.904;4.256;2023-03-04T07:21:17;102788.97;;;15.27;55.63
48517;BME280;34310;51.904;4.256;2023-03-04T07:23:45;102792.50;;;15.27;55.79
48517;BME280;34310;51.904;4.256;2023-03-04T07:26:13;102795.22;;;15.29;55.68
48517;BME280;34310;51.904;4.256;2023-03-04T07:28:40;102794.31;;;15.28;55.64
48517;BME280;34310;51.904;4.256;2023-03-04T07:31:24;102799.63;;;15.30;55.81
48517;BME280;34310;51.904;4.256;2023-03-04T07:33:57;102799.63;;;15.30;55.68
48517;BME280;34310;51.904;4.256;2023-03-04T07:36:25;102807.56;;;15.31;55.83
48517;BME280;34310;51.904;4.256;2023-03-04T07:38:52;102806.78;;;15.32;55.77
48517;BME280;34310;51.904;4.256;2023-03-04T07:41:22;102806.03;;;15.33;55.84
48517;BME280;34310;51.904;4.256;2023-03-04T07:43:50;102810.47;;;15.34;55.82
48517;BME280;34310;51.904;4.256;2023-03-04T07:46:18;102819.31;;;15.36;55.69
48517;BME280;34310;51.904;4.256;2023-03-04T07:48:45;102825.41;;;15.37;55.66
48517;BME280;34310;51.904;4.256;2023-03-04T07:51:20;102823.72;;;15.37;55.75
48517;BME280;34310;51.904;4.256;2023-03-04T07:53:51;102818.53;;;15.37;55.72
48517;BME280;34310;51.904;4.256;2023-03-04T07:56:20;102826.44;;;15.39;55.79
48517;BME280;34310;51.904;4.256;2023-03-04T07:58:49;102824.63;;;15.38;55.70
48517;BME280;34310;51.904;4.256;2023-03-04T08:01:28;102826.44;;;15.39;55.54
48517;BME280;34310;51.904;4.256;2023-03-04T08:03:56;102819.69;;;15.41;55.59
48517;BME280;34310;51.904;4.256;2023-03-04T08:06:25;102822.28;;;15.41;55.54
48517;BME280;34310;51.904;4.256;2023-03-04T08:09:04;102822.28;;;15.41;55.46
48517;BME280;34310;51.904;4.256;2023-03-04T08:11:33;102823.97;;;15.40;55.56
48517;BME280;34310;51.904;4.256;2023-03-04T08:14:01;102829.19;;;15.40;55.76
48517;BME280;34310;51.904;4.256;2023-03-04T08:16:29;102829.19;;;15.40;55.61
48517;BME280;34310;51.904;4.256;2023-03-04T08:18:58;102820.47;;;15.40;55.64
48517;BME280;34310;51.904;4.256;2023-03-04T08:21:27;102826.56;;;15.40;55.74
48517;BME280;34310;51.904;4.256;2023-03-04T08:23:57;102825.78;;;15.41;55.70
48517;BME280;34310;51.904;4.256;2023-03-04T08:26:28;102830.88;;;15.40;55.77
48517;BME280;34310;51.904;4.256;2023-03-04T08:28:56;102823.97;;;15.40;55.67
48517;BME280;34310;51.904;4.256;2023-03-04T08:31:24;102820.59;;;15.41;55.72
48517;BME280;34310;51.904;4.256;2023-03-04T08:33:52;102823.19;;;15.41;55.70
48517;BME280;34310;51.904;4.256;2023-03-04T08:36:20;102825.78;;;15.41;55.70
48517;BME280;34310;51.904;4.256;2023-03-04T08:38:47;102823.19;;;15.41;55.71
48517;BME280;34310;51.904;4.256;2023-03-04T08:41:15;102821.50;;;15.42;55.73
48517;BME280;34310;51.904;4.256;2023-03-04T08:43:43;102817.97;;;15.41;55.79
48517;BME280;34310;51.904;4.256;2023-03-04T08:46:10;102821.63;;;15.43;55.64
48517;BME280;34310;51.904;4.256;2023-03-04T08:48:38;102832.03;;;15.43;55.70
48517;BME280;34310;51.904;4.256;2023-03-04T08:51:13;102824.22;;;15.43;55.66
48517;BME280;34310;51.904;4.256;2023-03-04T08:53:41;102825.13;;;15.44;55.78
48517;BME280;34310;51.904;4.256;2023-03-04T08:56:09;102827.72;;;15.44;55.78
48517;BME280;34310;51.904;4.256;2023-03-04T08:58:37;102820.84;;;15.44;55.72
48517;BME280;34310;51.904;4.256;2023-03-04T09:01:08;102819.03;;;15.43;55.62
48517;BME280;34310;51.904;4.256;2023-03-04T09:03:36;102826.03;;;15.44;55.63
48517;BME280;34310;51.904;4.256;2023-03-04T09:06:04;102816.66;;;15.46;55.60
48517;BME280;34310;51.904;4.256;2023-03-04T09:08:32;102814.06;;;15.46;55.66
48517;BME280;34310;51.904;4.256;2023-03-04T09:11:00;102811.47;;;15.46;55.77
48517;BME280;34310;51.904;4.256;2023-03-04T09:13:29;102808.84;;;15.46;55.76
48517;BME280;34310;51.904;4.256;2023-03-04T09:15:58;102817.56;;;15.47;55.62
48517;BME280;34310;51.904;4.256;2023-03-04T09:18:26;102811.59;;;15.48;55.68
48517;BME280;34310;51.904;4.256;2023-03-04T09:20:54;102813.41;;;15.49;55.75
48517;BME280;34310;51.904;4.256;2023-03-04T09:23:22;102808.06;;;15.47;55.79
48517;BME280;34310;51.904;4.256;2023-03-04T09:25:49;102810.78;;;15.49;55.65
48517;BME280;34310;51.904;4.256;2023-03-04T09:28:17;102813.41;;;15.49;55.79
48517;BME280;34310;51.904;4.256;2023-03-04T09:30:45;102816.00;;;15.49;55.58
48517;BME280;34310;51.904;4.256;2023-03-04T09:33:13;102814.31;;;15.49;55.64
48517;BME280;34310;51.904;4.256;2023-03-04T09:35:41;102806.50;;;15.49;55.65
48517;BME280;34310;51.904;4.256;2023-03-04T09:38:08;102807.41;;;15.50;55.65
48517;BME280;34310;51.904;4.256;2023-03-04T09:40:40;102800.38;;;15.49;55.69
48517;BME280;34310;51.904;4.256;2023-03-04T09:43:16;102808.31;;;15.50;55.60
48517;BME280;34310;51.904;4.256;2023-03-04T09:45:54;102810.91;;;15.50;55.69
48517;BME280;34310;51.904;4.256;2023-03-04T09:48:27;102807.41;;;15.50;55.58
48517;BME280;34310;51.904;4.256;2023-03-04T09:54:07;102805.72;;;15.50;55.63
48517;BME280;34310;51.904;4.256;2023-03-04T09:56:37;102802.31;;;15.52;55.65
48517;BME280;34310;51.904;4.256;2023-03-04T09:59:42;102807.53;;;15.52;55.56
48517;BME280;34310;51.904;4.256;2023-03-04T10:02:23;102805.72;;;15.50;55.66
48517;BME280;34310;51.904;4.256;2023-03-04T10:04:58;102800.50;;;15.50;55.58
48517;BME280;34310;51.904;4.256;2023-03-04T10:07:36;102809.22;;;15.51;55.58
48517;BME280;34310;51.904;4.256;2023-03-04T10:10:12;102808.31;;;15.50;55.68
48517;BME280;34310;51.904;4.256;2023-03-04T10:12:44;102806.50;;;15.49;55.68
48517;BME280;34310;51.904;4.256;2023-03-04T10:15:36;102811.84;;;15.51;55.63
48517;BME280;34310;51.904;4.256;2023-03-04T10:18:30;102807.53;;;15.52;55.72
48517;BME280;34310;51.904;4.256;2023-03-04T10:21:16;102808.31;;;15.50;55.60
48517;BME280;34310;51.904;4.256;2023-03-04T10:23:46;102810.91;;;15.50;55.61
48517;BME280;34310;51.904;4.256;2023-03-04T10:26:17;102803.09;;;15.50;55.59
48517;BME280;34310;51.904;4.256;2023-03-04T10:28:47;102815.22;;;15.50;55.71
48517;BME280;34310;51.904;4.256;2023-03-04T10:31:33;102810.91;;;15.50;55.75
48517;BME280;34310;51.904;4.256;2023-03-04T10:34:05;102811.84;;;15.51;55.74
48517;BME280;34310;51.904;4.256;2023-03-04T10:39:21;102804.81;;;15.50;55.64
48517;BME280;34310;51.904;4.256;2023-03-04T10:44:58;102800.50;;;15.50;55.69
48517;BME280;34310;51.904;4.256;2023-03-04T10:47:28;102799.59;;;15.50;55.71
48517;BME280;34310;51.904;4.256;2023-03-04T10:50:01;102799.59;;;15.50;55.75
48517;BME280;34310;51.904;4.256;2023-03-04T10:52:29;102807.41;;;15.50;55.77
48517;BME280;34310;51.904;4.256;2023-03-04T10:55:05;102797.78;;;15.49;55.65
48517;BME280;34310;51.904;4.256;2023-03-04T10:57:41;102796.09;;;15.49;55.76
48517;BME280;34310;51.904;4.256;2023-03-04T11:02:44;102802.97;;;15.49;55.62
48517;BME280;34310;51.904;4.256;2023-03-04T11:07:53;102803.91;;;15.49;55.80
48517;BME280;34310;51.904;4.256;2023-03-04T11:13:15;102797.66;;;15.47;55.71
48517;BME280;34310;51.904;4.256;2023-03-04T11:15:58;102793.34;;;15.48;55.76
48517;BME280;34310;51.904;4.256;2023-03-04T11:18:43;102795.19;;;15.49;55.76
48517;BME280;34310;51.904;4.256;2023-03-04T11:21:19;102783.72;;;15.47;55.75
48517;BME280;34310;51.904;4.256;2023-03-04T11:32:23;102768.00;;;15.45;56.05
48517;BME280;34310;51.904;4.256;2023-03-04T11:38:35;102770.72;;;15.47;55.99
48517;BME280;34310;51.904;4.256;2023-03-04T11:41:10;102772.41;;;15.46;56.15
48517;BME280;34310;51.904;4.256;2023-03-04T11:43:42;102765.50;;;15.47;56.09
48517;BME280;34310;51.904;4.256;2023-03-04T12:02:43;102744.81;;;15.48;56.16
48517;BME280;34310;51.904;4.256;2023-03-04T12:10:56;102730.88;;;15.48;56.18
48517;BME280;34310;51.904;4.256;2023-03-04T12:25:09;102717.75;;;15.46;56.16
48517;BME280;34310;51.904;4.256;2023-03-04T12:30:47;102709.16;;;15.47;56.27
48517;BME280;34310;51.904;4.256;2023-03-04T12:41:41;102700.44;;;15.47;56.23
48517;BME280;34310;51.904;4.256;2023-03-04T12:44:19;102699.53;;;15.46;56.35
48517;BME280;34310;51.904;4.256;2023-03-04T12:52:39;102703.94;;;15.47;56.30
48517;BME280;34310;51.904;4.256;2023-03-04T12:55:15;102711.75;;;15.47;56.34
48517;BME280;34310;51.904;4.256;2023-03-04T12:57:43;102705.63;;;15.47;56.26
48517;BME280;34310;51.904;4.256;2023-03-04T13:10:35;102688.19;;;15.46;56.32
48517;BME280;34310;51.904;4.256;2023-03-04T13:13:03;102693.41;;;15.46;56.37
48517;BME280;34310;51.904;4.256;2023-03-04T13:15:36;102682.09;;;15.45;56.38
48517;BME280;34310;51.904;4.256;2023-03-04T13:20:46;102675.19;;;15.46;56.34
48517;BME280;34310;51.904;4.256;2023-03-04T13:23:30;102675.19;;;15.46;56.38
48517;BME280;34310;51.904;4.256;2023-03-04T13:28:35;102664.66;;;15.44;56.43
48517;BME280;34310;51.904;4.256;2023-03-04T13:36:06;102663.75;;;15.44;56.35
48517;BME280;34310;51.904;4.256;2023-03-04T13:41:49;102665.44;;;15.43;56.44
48517;BME280;34310;51.904;4.256;2023-03-04T13:44:56;102668.03;;;15.43;56.42
48517;BME280;34310;51.904;4.256;2023-03-04T13:47:41;102663.63;;;15.42;56.63
48517;BME280;34310;51.904;4.256;2023-03-04T13:52:51;102657.63;;;15.43;56.60
48517;BME280;34310;51.904;4.256;2023-03-04T13:55:35;102648.91;;;15.43;56.58
48517;BME280;34310;51.904;4.256;2023-03-04T13:58:22;102643.72;;;15.43;56.58
48517;BME280;34310;51.904;4.256;2023-03-04T14:00:54;102653.34;;;15.44;56.64
48517;BME280;34310;51.904;4.256;2023-03-04T14:03:28;102644.63;;;15.43;56.66
48517;BME280;34310;51.904;4.256;2023-03-04T14:06:18;102641.22;;;15.44;56.65
48517;BME280;34310;51.904;4.256;2023-03-04T14:08:46;102640.31;;;15.44;56.74
48517;BME280;34310;51.904;4.256;2023-03-04T14:11:24;102639.41;;;15.43;56.64
48517;BME280;34310;51.904;4.256;2023-03-04T14:13:54;102641.22;;;15.44;56.69
48517;BME280;34310;51.904;4.256;2023-03-04T14:16:26;102641.22;;;15.44;56.53
48517;BME280;34310;51.904;4.256;2023-03-04T14:19:02;102632.50;;;15.44;56.63
48517;BME280;34310;51.904;4.256;2023-03-04T14:21:31;102636.03;;;15.44;56.74
48517;BME280;34310;51.904;4.256;2023-03-04T14:24:00;102634.31;;;15.45;56.64
48517;BME280;34310;51.904;4.256;2023-03-04T14:26:28;102634.31;;;15.45;56.62
48517;BME280;34310;51.904;4.256;2023-03-04T14:28:57;102639.53;;;15.45;56.61
48517;BME280;34310;51.904;4.256;2023-03-04T14:31:27;102634.22;;;15.43;56.67
48517;BME280;34310;51.904;4.256;2023-03-04T14:33:59;102638.63;;;15.44;56.59
48517;BME280;34310;51.904;4.256;2023-03-04T14:36:32;102629.91;;;15.44;56.68
48517;BME280;34310;51.904;4.256;2023-03-04T14:39:04;102630.81;;;15.44;56.69
48517;BME280;34310;51.904;4.256;2023-03-04T14:41:39;102633.41;;;15.44;56.66
48517;BME280;34310;51.904;4.256;2023-03-04T14:46:54;102623.78;;;15.43;56.72
48517;BME280;34310;51.904;4.256;2023-03-04T14:49:35;102618.59;;;15.43;56.79
48517;BME280;34310;51.904;4.256;2023-03-04T14:52:03;102618.59;;;15.43;56.76
48517;BME280;34310;51.904;4.256;2023-03-04T14:54:39;102618.59;;;15.43;56.66
48517;BME280;34310;51.904;4.256;2023-03-04T14:57:33;102621.97;;;15.42;56.54